TimeCDT,TemperatureF,Dew PointF,Humidity,Sea Level PressureIn,VisibilityMPH,Wind Direction,Wind SpeedMPH,Gust SpeedMPH,PrecipitationIn,Events,Conditions,WindDirDegrees,DateUTC
12:52 AM,70.0,61.0,73,30.03,10.0,SSE,9.2,-,N/A,,Clear,150,2013-09-07 05:52:00
1:52 AM,69.1,61.0,75,30.02,10.0,SSE,8.1,-,N/A,,Clear,150,2013-09-07 06:52:00
2:52 AM,66.9,61.0,81,30.02,10.0,SSE,9.2,-,N/A,,Clear,150,2013-09-07 07:52:00
3:52 AM,68.0,62.1,81,30.02,10.0,SSE,9.2,-,N/A,,Clear,160,2013-09-07 08:52:00
4:52 AM,66.9,62.1,84,30.02,10.0,SSE,8.1,-,N/A,,Clear,150,2013-09-07 09:52:00
5:52 AM,66.9,63.0,87,30.02,10.0,SSE,8.1,-,N/A,,Clear,160,2013-09-07 10:52:00
6:52 AM,66.9,63.0,87,30.03,9.0,SSE,8.1,-,N/A,,Clear,160,2013-09-07 11:52:00
7:52 AM,69.1,64.0,84,30.03,10.0,SSE,9.2,-,N/A,,Clear,150,2013-09-07 12:52:00
8:52 AM,73.0,64.9,76,30.04,10.0,South,8.1,-,N/A,,Clear,170,2013-09-07 13:52:00
9:52 AM,79.0,66.0,64,30.04,10.0,South,9.2,-,N/A,,Clear,170,2013-09-07 14:52:00
10:52 AM,82.9,64.9,54,30.04,10.0,South,9.2,-,N/A,,Clear,190,2013-09-07 15:52:00
11:52 AM,87.1,66.0,49,30.04,10.0,South,8.1,-,N/A,,Clear,170,2013-09-07 16:52:00
12:52 PM,89.1,64.9,45,30.01,10.0,SW,9.2,-,N/A,,Clear,220,2013-09-07 17:52:00
1:52 PM,91.0,64.9,42,30.00,10.0,SW,10.4,-,N/A,,Clear,220,2013-09-07 18:52:00
2:52 PM,91.0,63.0,39,29.97,10.0,WSW,8.1,-,N/A,,Clear,250,2013-09-07 19:52:00
3:52 PM,91.0,62.1,38,29.95,10.0,SSW,9.2,-,N/A,,Clear,210,2013-09-07 20:52:00
4:52 PM,91.9,64.0,39,29.94,10.0,West,10.4,-,N/A,,Clear,260,2013-09-07 21:52:00
5:52 PM,90.0,63.0,40,29.94,10.0,SW,8.1,-,N/A,,Clear,220,2013-09-07 22:52:00
6:52 PM,86.0,66.0,51,29.93,10.0,South,5.8,-,N/A,,Clear,190,2013-09-07 23:52:00
7:52 PM,79.0,66.0,64,29.94,10.0,South,4.6,-,N/A,,Clear,170,2013-09-08 00:52:00
8:52 PM,75.9,66.0,71,29.95,10.0,South,3.5,-,N/A,,Clear,170,2013-09-08 01:52:00
9:52 PM,75.9,66.0,71,29.96,10.0,South,4.6,-,N/A,,Clear,170,2013-09-08 02:52:00
10:52 PM,75.9,66.0,71,29.95,10.0,South,9.2,-,N/A,,Clear,170,2013-09-08 03:52:00
11:52 PM,73.9,66.0,76,29.94,10.0,South,8.1,-,N/A,,Clear,170,2013-09-08 04:52:00